Time;durP1;ratioP1;P1;durP2;ratioP2;P2;SDS_P1;SDS_P2;PMS_P1;PMS_P2;Temp;Humidity;BMP_temperature;BMP_pressure;BME280_temperature;BME280_humidity;BME280_pressure;Samples;Min_cycle;Max_cycle;Signal;HPM_P1;HPM_P2
2022/09/03 00:00:45;;;;;;;1.00;1.00;;;;;;;;;;5011289;28;20267;-65
2022/09/03 00:03:17;;;;;;;1.00;1.00;;;;;;;;;;5014093;28;20516;-65
2022/09/03 00:05:47;;;;;;;0.90;0.90;;;;;;;;;;4991361;28;20221;-65
2022/09/03 00:08:21;;;;;;;0.90;0.90;;;;;;;;;;4994632;28;20226;-65
2022/09/03 00:10:51;;;;;;;1.03;1.03;;;;;;;;;;5011908;28;20696;-64
2022/09/03 00:13:19;;;;;;;1.10;1.10;;;;;;;;;;4973774;28;20267;-64
2022/09/03 00:15:45;;;;;;;1.00;1.00;;;;;;;;;;4992538;28;20630;-63
2022/09/03 00:18:19;;;;;;;0.90;0.90;;;;;;;;;;4996558;28;20248;-64
2022/09/03 00:20:50;;;;;;;1.00;1.00;;;;;;;;;;4979905;28;20248;-64
2022/09/03 00:23:20;;;;;;;0.90;0.90;;;;;;;;;;4994653;28;20239;-65
2022/09/03 00:25:48;;;;;;;0.87;0.87;;;;;;;;;;5018148;28;20229;-65
2022/09/03 00:28:17;;;;;;;1.03;1.03;;;;;;;;;;4982633;28;25539;-64
2022/09/03 00:30:43;;;;;;;1.00;1.00;;;;;;;;;;4994665;28;20225;-65
2022/09/03 00:33:20;;;;;;;1.10;1.10;;;;;;;;;;4984077;28;20233;-64
2022/09/03 00:35:48;;;;;;;0.90;0.90;;;;;;;;;;4990167;28;20225;-63
2022/09/03 00:38:14;;;;;;;0.93;0.93;;;;;;;;;;4997251;28;20593;-63
2022/09/03 00:40:59;;;;;;;1.10;1.10;;;;;;;;;;5006268;28;20254;-65
2022/09/03 00:43:45;;;;;;;2.10;2.00;;;;;;;;;;5012419;28;20216;-64
2022/09/03 00:46:24;;;;;;;1.93;1.83;;;;;;;;;;5014783;28;20229;-64
2022/09/03 00:48:55;;;;;;;2.10;2.00;;;;;;;;;;5002044;28;20312;-64
2022/09/03 00:51:28;;;;;;;2.20;2.10;;;;;;;;;;4994755;28;20237;-64
2022/09/03 00:54:09;;;;;;;1.87;1.77;;;;;;;;;;5013634;28;20231;-65
2022/09/03 00:56:35;;;;;;;1.70;1.70;;;;;;;;;;5014497;28;20247;-63
2022/09/03 00:59:14;;;;;;;1.90;1.80;;;;;;;;;;5015001;28;20977;-65
2022/09/03 01:01:40;;;;;;;1.73;1.70;;;;;;;;;;5017502;28;20227;-65
2022/09/03 01:04:20;;;;;;;1.67;1.63;;;;;;;;;;5017360;28;20212;-65
2022/09/03 01:06:52;;;;;;;1.50;1.50;;;;;;;;;;4985561;28;20344;-65
2022/09/03 01:09:29;;;;;;;1.73;1.70;;;;;;;;;;5018281;28;20228;-65
2022/09/03 01:11:58;;;;;;;1.57;1.57;;;;;;;;;;5010424;28;20224;-65
2022/09/03 01:14:54;;;;;;;1.57;1.57;;;;;;;;;;5011107;28;20236;-65
2022/09/03 01:17:23;;;;;;;1.40;1.40;;;;;;;;;;4980318;28;20263;-65
2022/09/03 01:20:03;;;;;;;1.47;1.47;;;;;;;;;;5014532;28;20256;-63
2022/09/03 01:22:48;;;;;;;1.70;1.70;;;;;;;;;;5015539;28;20217;-63
2022/09/03 01:25:14;;;;;;;2.23;2.13;;;;;;;;;;5021306;28;20225;-63
2022/09/03 01:27:59;;;;;;;1.90;1.80;;;;;;;;;;5014312;28;20220;-63
2022/09/03 01:30:25;;;;;;;1.93;1.83;;;;;;;;;;5007705;28;20216;-65
2022/09/03 01:32:54;;;;;;;2.27;2.17;;;;;;;;;;5013523;28;20277;-64
2022/09/03 01:35:23;;;;;;;1.60;1.60;;;;;;;;;;5021494;28;20430;-63
2022/09/03 01:38:08;;;;;;;1.63;1.63;;;;;;;;;;5021237;28;21126;-65
2022/09/03 01:40:37;;;;;;;1.70;1.70;;;;;;;;;;5008504;28;20224;-65
2022/09/03 01:43:09;;;;;;;1.50;1.50;;;;;;;;;;5018629;28;20216;-63
2022/09/03 01:45:47;;;;;;;1.50;1.50;;;;;;;;;;5007828;28;20606;-65
2022/09/03 01:48:23;;;;;;;1.53;1.53;;;;;;;;;;4999450;28;20228;-64
2022/09/03 01:51:03;;;;;;;1.93;1.83;;;;;;;;;;5026545;28;20228;-64
2022/09/03 01:53:35;;;;;;;1.60;1.60;;;;;;;;;;5006922;28;20228;-64
2022/09/03 01:56:19;;;;;;;1.60;1.60;;;;;;;;;;5013707;28;20224;-63
2022/09/03 01:59:05;;;;;;;1.97;1.87;;;;;;;;;;5018570;28;20255;-64
2022/09/03 02:01:31;;;;;;;1.90;1.80;;;;;;;;;;5015971;28;20267;-64
2022/09/03 02:03:58;;;;;;;2.10;2.00;;;;;;;;;;5015900;28;20263;-65
2022/09/03 02:06:24;;;;;;;2.27;2.17;;;;;;;;;;5001561;28;20256;-63
2022/09/03 02:08:50;;;;;;;1.93;1.83;;;;;;;;;;4997209;28;21328;-63
2022/09/03 02:11:16;;;;;;;2.17;2.07;;;;;;;;;;5009261;28;20307;-63
2022/09/03 02:13:43;;;;;;;2.00;1.90;;;;;;;;;;5020057;28;20528;-64
2022/09/03 02:16:14;;;;;;;2.00;1.90;;;;;;;;;;5027708;28;20590;-63
2022/09/03 02:18:44;;;;;;;2.30;2.20;;;;;;;;;;5035290;28;20312;-64
2022/09/03 02:21:10;;;;;;;2.07;1.97;;;;;;;;;;5018281;28;20260;-65
2022/09/03 02:23:38;;;;;;;2.20;2.10;;;;;;;;;;4998103;28;20304;-63
2022/09/03 02:26:04;;;;;;;1.60;1.60;;;;;;;;;;5003550;28;20222;-64
2022/09/03 02:28:30;;;;;;;2.10;2.00;;;;;;;;;;5018448;28;20231;-64
2022/09/03 02:30:56;;;;;;;2.20;2.10;;;;;;;;;;5007265;28;20230;-64
2022/09/03 02:33:22;;;;;;;2.20;2.10;;;;;;;;;;5017153;28;21084;-64
2022/09/03 02:35:48;;;;;;;2.33;2.23;;;;;;;;;;5005026;28;20227;-63
2022/09/03 02:38:18;;;;;;;2.10;2.00;;;;;;;;;;4997957;28;20283;-65
2022/09/03 02:40:44;;;;;;;0.87;0.87;;;;;;;;;;5012141;28;20240;-64
2022/09/03 02:43:18;;;;;;;0.90;0.90;;;;;;;;;;5019125;28;20220;-64
2022/09/03 02:45:48;;;;;;;0.80;0.80;;;;;;;;;;5007513;28;20274;-64
2022/09/03 02:48:15;;;;;;;0.90;0.90;;;;;;;;;;4995546;28;20222;-65
2022/09/03 02:50:41;;;;;;;0.90;0.90;;;;;;;;;;5020443;28;20330;-65
2022/09/03 02:53:07;;;;;;;1.10;1.10;;;;;;;;;;5013445;28;20565;-64
2022/09/03 02:55:33;;;;;;;1.00;1.00;;;;;;;;;;5006932;28;20695;-63
2022/09/03 02:57:59;;;;;;;1.00;1.00;;;;;;;;;;5005750;28;20237;-64
2022/09/03 03:00:27;;;;;;;0.83;0.83;;;;;;;;;;5016263;28;20227;-63
2022/09/03 03:02:54;;;;;;;0.90;0.90;;;;;;;;;;5013330;28;20506;-63
2022/09/03 03:05:21;;;;;;;0.90;0.90;;;;;;;;;;5016756;28;20455;-65
2022/09/03 03:07:47;;;;;;;0.80;0.80;;;;;;;;;;5003445;28;20668;-64
2022/09/03 03:10:13;;;;;;;0.90;0.90;;;;;;;;;;5010656;28;20224;-64
2022/09/03 03:12:39;;;;;;;0.80;0.80;;;;;;;;;;5004599;28;20234;-62
2022/09/03 03:15:05;;;;;;;0.90;0.90;;;;;;;;;;5008867;28;20223;-64
2022/09/03 03:17:31;;;;;;;0.93;0.93;;;;;;;;;;5015784;28;20289;-64
2022/09/03 03:19:57;;;;;;;0.90;0.90;;;;;;;;;;5008326;28;20236;-64
2022/09/03 03:22:23;;;;;;;0.80;0.80;;;;;;;;;;4995057;28;20232;-64
2022/09/03 03:24:49;;;;;;;1.13;1.13;;;;;;;;;;5014155;28;20220;-62
2022/09/03 03:27:16;;;;;;;1.10;1.10;;;;;;;;;;5018427;28;20274;-65
2022/09/03 03:29:41;;;;;;;1.20;1.20;;;;;;;;;;5005253;28;20583;-64
2022/09/03 03:32:07;;;;;;;0.87;0.87;;;;;;;;;;5008445;28;20224;-64
2022/09/03 03:34:33;;;;;;;0.90;0.90;;;;;;;;;;5020506;28;20236;-63
2022/09/03 03:36:59;;;;;;;0.87;0.87;;;;;;;;;;5014364;28;20725;-63
2022/09/03 03:39:25;;;;;;;0.87;0.87;;;;;;;;;;5018489;28;20709;-65
2022/09/03 03:41:51;;;;;;;1.00;1.00;;;;;;;;;;5012658;28;20628;-65
2022/09/03 03:44:19;;;;;;;1.40;1.40;;;;;;;;;;5014521;28;20657;-63
2022/09/03 03:46:45;;;;;;;1.60;1.60;;;;;;;;;;5021096;28;20225;-63
2022/09/03 03:49:11;;;;;;;1.77;1.70;;;;;;;;;;5015077;28;20226;-64
2022/09/03 03:51:37;;;;;;;1.93;1.83;;;;;;;;;;5013878;28;20263;-64
2022/09/03 03:54:03;;;;;;;1.77;1.70;;;;;;;;;;5009294;28;20232;-63
2022/09/03 03:56:29;;;;;;;1.63;1.63;;;;;;;;;;5015418;28;20229;-63
2022/09/03 03:58:56;;;;;;;1.83;1.73;;;;;;;;;;5000668;28;21897;-64
2022/09/03 04:01:22;;;;;;;1.60;1.60;;;;;;;;;;5009897;28;20221;-63
2022/09/03 04:03:48;;;;;;;2.17;2.07;;;;;;;;;;5011497;28;20682;-64
2022/09/03 04:06:15;;;;;;;1.60;1.60;;;;;;;;;;5022044;28;20252;-65
2022/09/03 04:08:42;;;;;;;1.80;1.70;;;;;;;;;;5016990;28;20668;-61
2022/09/03 04:11:08;;;;;;;1.60;1.60;;;;;;;;;;5025245;28;20258;-62
2022/09/03 04:13:35;;;;;;;2.20;2.10;;;;;;;;;;5024814;28;20232;-61
2022/09/03 04:16:02;;;;;;;0.60;0.60;;;;;;;;;;5014540;28;20228;-60
2022/09/03 04:18:28;;;;;;;0.60;0.60;;;;;;;;;;5007876;28;20219;-62
2022/09/03 04:20:58;;;;;;;0.80;0.80;;;;;;;;;;5017531;28;20252;-60
2022/09/03 04:23:24;;;;;;;0.70;0.70;;;;;;;;;;5004961;28;20247;-62
2022/09/03 04:25:53;;;;;;;0.70;0.70;;;;;;;;;;5008024;28;20282;-62
2022/09/03 04:28:19;;;;;;;0.80;0.80;;;;;;;;;;5026855;28;20234;-61
2022/09/03 04:30:45;;;;;;;0.90;0.90;;;;;;;;;;5031145;28;20264;-61
2022/09/03 04:33:11;;;;;;;0.90;0.90;;;;;;;;;;5008515;28;20229;-61
2022/09/03 04:35:37;;;;;;;0.70;0.70;;;;;;;;;;5014520;28;20242;-60
2022/09/03 04:38:03;;;;;;;0.80;0.80;;;;;;;;;;5020049;28;20224;-61
2022/09/03 04:40:29;;;;;;;0.70;0.70;;;;;;;;;;5024826;28;20287;-61
2022/09/03 04:42:58;;;;;;;0.80;0.80;;;;;;;;;;5021134;28;20247;-60
2022/09/03 04:45:24;;;;;;;0.90;0.90;;;;;;;;;;5022141;28;20786;-62
2022/09/03 04:47:57;;;;;;;0.80;0.80;;;;;;;;;;5005690;28;20220;-61
2022/09/03 04:50:23;;;;;;;0.80;0.80;;;;;;;;;;5020316;28;20240;-62
2022/09/03 04:52:49;;;;;;;0.73;0.73;;;;;;;;;;5013186;28;20263;-60
2022/09/03 04:55:15;;;;;;;0.90;0.90;;;;;;;;;;5021969;28;20220;-61
2022/09/03 04:57:41;;;;;;;0.70;0.70;;;;;;;;;;5018543;28;20230;-61
2022/09/03 05:00:10;;;;;;;1.10;1.10;;;;;;;;;;5019711;28;20652;-61
2022/09/03 05:02:36;;;;;;;0.70;0.70;;;;;;;;;;5013796;28;20788;-61
2022/09/03 05:05:02;;;;;;;1.07;1.07;;;;;;;;;;5016241;28;20239;-61
2022/09/03 05:07:37;;;;;;;1.00;1.00;;;;;;;;;;5022469;28;20231;-61
2022/09/03 05:10:05;;;;;;;0.80;0.80;;;;;;;;;;5005992;28;20228;-61
2022/09/03 05:12:32;;;;;;;1.00;1.00;;;;;;;;;;5005593;28;20232;-61
2022/09/03 05:14:58;;;;;;;0.97;0.97;;;;;;;;;;5034850;28;20299;-60
2022/09/03 05:17:24;;;;;;;0.80;0.80;;;;;;;;;;5017016;28;20220;-61
2022/09/03 05:19:50;;;;;;;1.10;1.10;;;;;;;;;;5011848;28;20714;-61
2022/09/03 05:22:20;;;;;;;0.90;0.90;;;;;;;;;;5025611;28;20814;-61
2022/09/03 05:24:47;;;;;;;0.90;0.90;;;;;;;;;;5024366;28;20524;-61
2022/09/03 05:27:15;;;;;;;0.80;0.80;;;;;;;;;;5019192;28;20237;-62
2022/09/03 05:29:41;;;;;;;0.90;0.90;;;;;;;;;;5002371;28;20377;-61
2022/09/03 05:32:07;;;;;;;1.00;1.00;;;;;;;;;;5012383;28;20260;-61
2022/09/03 05:34:33;;;;;;;0.90;0.90;;;;;;;;;;5024592;28;20764;-61
2022/09/03 05:36:59;;;;;;;0.90;0.90;;;;;;;;;;5010897;28;20716;-61
2022/09/03 05:39:25;;;;;;;1.00;1.00;;;;;;;;;;5025386;28;20225;-61
2022/09/03 05:41:52;;;;;;;0.90;0.90;;;;;;;;;;5002808;28;20259;-62
2022/09/03 05:44:20;;;;;;;0.87;0.87;;;;;;;;;;5012900;28;20278;-61
2022/09/03 05:46:46;;;;;;;0.90;0.90;;;;;;;;;;5017253;28;20231;-61
2022/09/03 05:49:12;;;;;;;0.87;0.87;;;;;;;;;;5012529;28;20226;-60
2022/09/03 05:51:41;;;;;;;0.90;0.90;;;;;;;;;;5018719;28;20229;-61
2022/09/03 05:54:07;;;;;;;1.10;1.10;;;;;;;;;;5002804;28;20760;-61
2022/09/03 05:56:35;;;;;;;0.83;0.83;;;;;;;;;;5018145;28;20738;-61
2022/09/03 05:59:04;;;;;;;0.97;0.97;;;;;;;;;;5016411;28;20310;-62
2022/09/03 06:01:34;;;;;;;0.80;0.80;;;;;;;;;;5008661;28;20264;-61
2022/09/03 06:04:06;;;;;;;0.80;0.80;;;;;;;;;;5003776;28;20226;-61
2022/09/03 06:06:33;;;;;;;0.90;0.90;;;;;;;;;;5005377;28;20696;-61
2022/09/03 06:09:01;;;;;;;0.70;0.70;;;;;;;;;;5008031;28;20804;-63
2022/09/03 06:11:28;;;;;;;0.70;0.70;;;;;;;;;;5018174;28;20812;-62
2022/09/03 06:14:00;;;;;;;0.80;0.80;;;;;;;;;;5017480;28;20255;-62
2022/09/03 06:16:26;;;;;;;0.80;0.80;;;;;;;;;;5014164;28;20258;-61
2022/09/03 06:18:52;;;;;;;0.70;0.70;;;;;;;;;;5006702;28;20216;-60
2022/09/03 06:21:18;;;;;;;0.80;0.80;;;;;;;;;;5004237;28;20252;-62
2022/09/03 06:23:50;;;;;;;0.70;0.70;;;;;;;;;;4984041;28;20351;-60
2022/09/03 06:26:16;;;;;;;0.70;0.70;;;;;;;;;;5010200;28;20244;-61
2022/09/03 06:28:43;;;;;;;0.90;0.90;;;;;;;;;;5011878;28;20224;-61
2022/09/03 06:31:09;;;;;;;1.00;1.00;;;;;;;;;;5017830;28;20299;-61
2022/09/03 06:33:36;;;;;;;0.90;0.90;;;;;;;;;;5009769;28;20669;-60
2022/09/03 06:36:02;;;;;;;0.90;0.90;;;;;;;;;;5005672;28;20687;-61
2022/09/03 06:38:30;;;;;;;0.70;0.70;;;;;;;;;;5001285;28;20295;-61
2022/09/03 06:40:57;;;;;;;0.77;0.77;;;;;;;;;;5003802;28;20453;-61
2022/09/03 06:43:23;;;;;;;0.97;0.97;;;;;;;;;;5017502;28;20258;-61
2022/09/03 06:45:53;;;;;;;0.90;0.90;;;;;;;;;;5012551;28;20749;-62
2022/09/03 06:48:19;;;;;;;0.60;0.60;;;;;;;;;;5005840;28;20532;-60
2022/09/03 06:50:52;;;;;;;0.60;0.60;;;;;;;;;;5003519;28;20255;-61
2022/09/03 06:53:18;;;;;;;0.80;0.80;;;;;;;;;;5008036;28;20315;-61
2022/09/03 06:55:51;;;;;;;0.70;0.70;;;;;;;;;;4997260;28;20562;-60
2022/09/03 06:58:17;;;;;;;0.70;0.70;;;;;;;;;;5012495;28;20223;-61
2022/09/03 07:00:44;;;;;;;0.70;0.70;;;;;;;;;;4992962;28;20708;-61
2022/09/03 07:03:10;;;;;;;0.63;0.63;;;;;;;;;;5007782;28;20231;-61
2022/09/03 07:05:36;;;;;;;0.77;0.77;;;;;;;;;;5019524;28;20213;-60
2022/09/03 07:08:02;;;;;;;0.70;0.70;;;;;;;;;;5006454;28;20217;-60
2022/09/03 07:10:28;;;;;;;0.70;0.70;;;;;;;;;;4999244;28;21017;-60
2022/09/03 07:12:54;;;;;;;0.70;0.70;;;;;;;;;;4999964;28;20229;-61
2022/09/03 07:15:21;;;;;;;0.70;0.70;;;;;;;;;;5005148;28;20273;-61
2022/09/03 07:17:46;;;;;;;0.60;0.60;;;;;;;;;;5009587;28;20233;-61
2022/09/03 07:20:12;;;;;;;0.70;0.70;;;;;;;;;;5003225;28;20648;-61
2022/09/03 07:22:38;;;;;;;0.60;0.60;;;;;;;;;;5008617;28;20226;-60
2022/09/03 07:25:05;;;;;;;0.70;0.70;;;;;;;;;;5013666;28;20241;-61
2022/09/03 07:27:31;;;;;;;0.80;0.80;;;;;;;;;;5004563;28;20818;-60
2022/09/03 07:29:57;;;;;;;0.60;0.60;;;;;;;;;;4998815;28;20252;-61
2022/09/03 07:32:23;;;;;;;0.80;0.80;;;;;;;;;;5011178;28;20244;-61
2022/09/03 07:34:51;;;;;;;0.90;0.90;;;;;;;;;;5011208;28;20215;-61
2022/09/03 07:37:18;;;;;;;0.70;0.70;;;;;;;;;;5000803;28;20693;-60
2022/09/03 07:39:45;;;;;;;0.70;0.70;;;;;;;;;;5026926;28;20653;-61
2022/09/03 07:42:11;;;;;;;0.70;0.70;;;;;;;;;;5012513;28;20598;-60
2022/09/03 07:44:37;;;;;;;0.77;0.77;;;;;;;;;;5017527;28;20216;-61
2022/09/03 07:47:03;;;;;;;0.70;0.70;;;;;;;;;;5006525;28;20225;-61
2022/09/03 07:49:29;;;;;;;0.60;0.60;;;;;;;;;;5018565;28;20712;-59
2022/09/03 07:51:55;;;;;;;0.60;0.60;;;;;;;;;;5014119;28;20290;-62
2022/09/03 07:54:22;;;;;;;0.70;0.70;;;;;;;;;;5011455;28;20228;-59
2022/09/03 07:56:48;;;;;;;0.80;0.80;;;;;;;;;;5009875;28;20251;-59
2022/09/03 07:59:14;;;;;;;0.70;0.70;;;;;;;;;;5019233;28;20296;-60
2022/09/03 08:01:40;;;;;;;0.70;0.70;;;;;;;;;;5028216;28;20236;-61
2022/09/03 08:04:06;;;;;;;0.90;0.90;;;;;;;;;;5008734;28;20669;-62
2022/09/03 08:06:33;;;;;;;0.70;0.70;;;;;;;;;;5016259;28;20245;-62
2022/09/03 08:09:02;;;;;;;0.70;0.70;;;;;;;;;;4997455;28;20251;-61
2022/09/03 08:11:28;;;;;;;0.70;0.70;;;;;;;;;;5011500;28;20224;-63
2022/09/03 08:14:00;;;;;;;0.70;0.70;;;;;;;;;;5014929;28;20231;-61
2022/09/03 08:16:25;;;;;;;0.60;0.60;;;;;;;;;;5020928;28;20735;-61
2022/09/03 08:18:52;;;;;;;0.60;0.60;;;;;;;;;;5009644;28;20315;-60
2022/09/03 08:21:18;;;;;;;0.80;0.80;;;;;;;;;;4998325;28;20600;-61
2022/09/03 08:23:48;;;;;;;0.50;0.50;;;;;;;;;;4978235;28;20236;-62
2022/09/03 08:26:14;;;;;;;0.70;0.70;;;;;;;;;;4984920;28;20221;-62
2022/09/03 08:28:41;;;;;;;0.80;0.80;;;;;;;;;;4998427;28;20909;-60
2022/09/03 08:31:11;;;;;;;1.00;1.00;;;;;;;;;;5020208;28;20259;-61
2022/09/03 08:33:41;;;;;;;1.30;1.30;;;;;;;;;;5012290;28;20594;-62
2022/09/03 08:36:08;;;;;;;1.10;1.10;;;;;;;;;;5007763;28;20589;-61
2022/09/03 08:38:34;;;;;;;0.90;0.90;;;;;;;;;;5017932;28;20232;-62
2022/09/03 08:41:04;;;;;;;0.90;0.90;;;;;;;;;;5010797;28;20281;-62
2022/09/03 08:43:30;;;;;;;0.90;0.90;;;;;;;;;;5011306;28;20256;-61
2022/09/03 08:45:58;;;;;;;0.90;0.90;;;;;;;;;;5008278;28;20863;-62
2022/09/03 08:48:24;;;;;;;0.80;0.80;;;;;;;;;;5008183;28;20631;-60
2022/09/03 08:50:54;;;;;;;0.60;0.60;;;;;;;;;;5002524;28;20328;-61
2022/09/03 08:53:27;;;;;;;0.57;0.57;;;;;;;;;;5004774;28;20228;-60
2022/09/03 08:55:54;;;;;;;0.60;0.60;;;;;;;;;;5014083;28;20733;-61
2022/09/03 08:58:21;;;;;;;0.60;0.60;;;;;;;;;;5019114;28;20306;-60
2022/09/03 09:01:02;;;;;;;0.68;0.68;;;;;;;;;;5009469;28;20882;-61
2022/09/03 09:03:47;;;;;;;0.60;0.60;;;;;;;;;;5011628;28;20235;-61
2022/09/03 09:06:32;;;;;;;0.68;0.68;;;;;;;;;;5004345;28;20233;-62
2022/09/03 09:09:01;;;;;;;0.70;0.70;;;;;;;;;;5018988;28;20256;-62
2022/09/03 09:11:30;;;;;;;0.63;0.63;;;;;;;;;;5016048;28;20237;-61
2022/09/03 09:13:58;;;;;;;0.70;0.70;;;;;;;;;;5013399;28;20716;-61
2022/09/03 09:16:34;;;;;;;0.70;0.70;;;;;;;;;;5001591;28;20221;-63
2022/09/03 09:19:08;;;;;;;0.82;0.82;;;;;;;;;;5013149;28;20220;-61
2022/09/03 09:21:44;;;;;;;0.60;0.60;;;;;;;;;;5004955;28;20228;-61
2022/09/03 09:24:12;;;;;;;0.55;0.55;;;;;;;;;;5003770;28;20228;-62
2022/09/03 09:26:39;;;;;;;0.70;0.70;;;;;;;;;;5007413;28;20709;-62
2022/09/03 09:29:06;;;;;;;0.80;0.80;;;;;;;;;;5002823;28;20343;-61
2022/09/03 09:31:32;;;;;;;0.80;0.80;;;;;;;;;;5009550;28;20221;-62
2022/09/03 09:34:05;;;;;;;0.65;0.65;;;;;;;;;;5009790;28;20275;-63
2022/09/03 09:36:31;;;;;;;0.63;0.63;;;;;;;;;;5017012;28;20231;-63
2022/09/03 09:39:07;;;;;;;1.10;1.10;;;;;;;;;;5008707;28;20672;-60
2022/09/03 09:41:33;;;;;;;1.25;1.25;;;;;;;;;;4999974;28;20270;-63
2022/09/03 09:44:04;;;;;;;1.10;1.10;;;;;;;;;;4996628;28;20319;-62
2022/09/03 09:46:33;;;;;;;1.40;1.40;;;;;;;;;;5002687;28;20295;-61
2022/09/03 09:48:59;;;;;;;1.40;1.40;;;;;;;;;;4973967;28;20738;-62
2022/09/03 09:51:25;;;;;;;1.33;1.33;;;;;;;;;;5015771;28;20263;-63
2022/09/03 09:54:12;;;;;;;1.30;1.30;;;;;;;;;;5009744;28;20240;-61
2022/09/03 09:56:38;;;;;;;1.30;1.30;;;;;;;;;;5007412;28;20225;-62
2022/09/03 09:59:05;;;;;;;1.40;1.40;;;;;;;;;;4997816;28;20212;-62
2022/09/03 10:01:31;;;;;;;1.33;1.33;;;;;;;;;;5010162;28;20837;-61
2022/09/03 10:03:58;;;;;;;1.50;1.50;;;;;;;;;;5015703;28;20842;-63
2022/09/03 10:09:10;;;;;;;1.80;1.70;;;;;;;;;;5007281;28;20284;-62
2022/09/03 10:11:39;;;;;;;1.70;1.67;;;;;;;;;;5022009;28;20220;-62
2022/09/03 10:14:06;;;;;;;1.55;1.55;;;;;;;;;;5008830;28;20847;-62
2022/09/03 10:16:35;;;;;;;1.38;1.38;;;;;;;;;;5019485;28;20604;-62
2022/09/03 10:19:07;;;;;;;1.30;1.30;;;;;;;;;;4992140;28;20243;-63
2022/09/03 10:21:39;;;;;;;1.42;1.42;;;;;;;;;;4981271;28;20224;-60
2022/09/03 10:24:14;;;;;;;1.52;1.52;;;;;;;;;;4998395;28;20745;-61
2022/09/03 10:26:40;;;;;;;1.30;1.30;;;;;;;;;;5012801;28;20231;-62
2022/09/03 10:29:07;;;;;;;1.30;1.30;;;;;;;;;;5006726;28;20232;-63
2022/09/03 10:31:42;;;;;;;1.30;1.30;;;;;;;;;;5012563;28;20613;-61
2022/09/03 10:34:10;;;;;;;1.30;1.30;;;;;;;;;;4990054;28;20288;-62
2022/09/03 10:36:42;;;;;;;1.30;1.30;;;;;;;;;;5001588;28;20717;-61
2022/09/03 10:39:08;;;;;;;1.50;1.50;;;;;;;;;;5008190;28;21563;-61
2022/09/03 10:41:54;;;;;;;1.30;1.30;;;;;;;;;;5013064;28;20266;-63
2022/09/03 10:44:41;;;;;;;1.40;1.40;;;;;;;;;;4999490;28;20255;-60
2022/09/03 10:47:11;;;;;;;1.50;1.50;;;;;;;;;;5010849;28;21187;-63
2022/09/03 10:49:37;;;;;;;1.40;1.40;;;;;;;;;;4994001;28;20669;-64
2022/09/03 10:52:11;;;;;;;1.30;1.30;;;;;;;;;;5014971;28;20236;-61
2022/09/03 10:54:43;;;;;;;1.40;1.40;;;;;;;;;;4996154;28;20229;-62
2022/09/03 10:57:32;;;;;;;1.20;1.20;;;;;;;;;;5024897;28;20764;-62
2022/09/03 11:00:19;;;;;;;1.30;1.30;;;;;;;;;;5004561;28;20250;-60
2022/09/03 11:03:03;;;;;;;1.27;1.27;;;;;;;;;;5009024;28;20222;-63
2022/09/03 11:05:37;;;;;;;1.20;1.20;;;;;;;;;;5014696;28;20403;-62
2022/09/03 11:08:05;;;;;;;1.20;1.20;;;;;;;;;;5004070;28;20228;-61
2022/09/03 11:10:32;;;;;;;1.30;1.30;;;;;;;;;;4995913;28;20287;-62
2022/09/03 11:13:06;;;;;;;1.27;1.27;;;;;;;;;;5017554;28;20233;-61
2022/09/03 11:15:40;;;;;;;1.30;1.30;;;;;;;;;;4987677;28;21419;-62
2022/09/03 11:18:22;;;;;;;1.40;1.40;;;;;;;;;;4997121;28;20224;-61
2022/09/03 11:20:49;;;;;;;1.20;1.20;;;;;;;;;;4995266;28;20226;-62
2022/09/03 11:23:15;;;;;;;1.30;1.30;;;;;;;;;;5014933;28;20213;-61
2022/09/03 11:25:43;;;;;;;1.75;1.70;;;;;;;;;;5023105;28;20766;-61
2022/09/03 11:28:23;;;;;;;1.90;1.80;;;;;;;;;;5007280;28;20235;-61
2022/09/03 11:31:03;;;;;;;1.90;1.80;;;;;;;;;;5009293;28;20741;-61
2022/09/03 11:33:29;;;;;;;1.80;1.70;;;;;;;;;;4995049;28;20346;-61
2022/09/03 11:35:56;;;;;;;2.35;2.25;;;;;;;;;;5010347;28;20231;-62
2022/09/03 11:38:27;;;;;;;2.28;2.17;;;;;;;;;;5006304;28;20229;-62
2022/09/03 11:40:56;;;;;;;2.03;1.92;;;;;;;;;;4990211;28;20228;-61
2022/09/03 11:43:32;;;;;;;2.05;1.95;;;;;;;;;;5006236;28;20230;-62
2022/09/03 11:46:17;;;;;;;2.00;1.90;;;;;;;;;;5013012;28;20273;-61
2022/09/03 11:48:43;;;;;;;2.03;1.92;;;;;;;;;;5026964;28;20224;-62
2022/09/03 11:51:29;;;;;;;2.20;2.10;;;;;;;;;;4994223;28;21720;-63
2022/09/03 11:54:01;;;;;;;2.08;1.98;;;;;;;;;;4993532;28;20278;-61
2022/09/03 11:56:27;;;;;;;2.00;1.90;;;;;;;;;;4998877;28;20232;-62
2022/09/03 11:59:15;;;;;;;1.90;1.80;;;;;;;;;;4985228;28;20224;-62
2022/09/03 12:01:46;;;;;;;1.60;1.60;;;;;;;;;;5003443;28;20235;-61
2022/09/03 12:04:16;;;;;;;1.60;1.60;;;;;;;;;;4988299;28;20224;-62
2022/09/03 12:06:55;;;;;;;2.10;2.00;;;;;;;;;;4974917;28;20284;-62
2022/09/03 12:09:21;;;;;;;2.20;2.10;;;;;;;;;;4999248;28;20278;-60
2022/09/03 12:12:05;;;;;;;2.15;2.05;;;;;;;;;;4995958;28;20260;-62
2022/09/03 12:14:50;;;;;;;2.30;2.20;;;;;;;;;;4992665;28;20630;-63
2022/09/03 12:17:22;;;;;;;2.20;2.10;;;;;;;;;;4997703;28;20224;-63
2022/09/03 12:19:50;;;;;;;2.10;2.00;;;;;;;;;;4997630;28;20224;-63
2022/09/03 12:22:16;;;;;;;2.10;2.00;;;;;;;;;;4998069;28;20253;-62
2022/09/03 12:24:43;;;;;;;2.10;2.00;;;;;;;;;;5002078;28;20217;-62
2022/09/03 12:27:13;;;;;;;2.20;2.10;;;;;;;;;;4997005;28;20222;-64
2022/09/03 12:29:39;;;;;;;2.50;2.40;;;;;;;;;;4988379;28;20900;-61
2022/09/03 12:32:09;;;;;;;2.30;2.20;;;;;;;;;;4984496;28;20287;-61
2022/09/03 12:34:34;;;;;;;2.20;2.10;;;;;;;;;;4995387;28;20247;-61
2022/09/03 12:37:01;;;;;;;2.20;2.10;;;;;;;;;;4997838;28;20714;-62
2022/09/03 12:39:28;;;;;;;2.10;2.00;;;;;;;;;;5004619;28;20256;-62
2022/09/03 12:41:56;;;;;;;2.20;2.10;;;;;;;;;;5006890;28;20262;-64
2022/09/03 12:44:28;;;;;;;2.17;2.08;;;;;;;;;;4994004;28;20236;-65
2022/09/03 12:47:13;;;;;;;2.13;2.03;;;;;;;;;;5000792;28;20240;-64
2022/09/03 12:49:46;;;;;;;2.00;1.90;;;;;;;;;;4995564;28;20290;-64
2022/09/03 12:52:19;;;;;;;2.20;2.10;;;;;;;;;;4998745;28;20378;-64
2022/09/03 12:54:51;;;;;;;1.90;1.80;;;;;;;;;;4989743;28;20639;-64
2022/09/03 12:57:18;;;;;;;1.90;1.80;;;;;;;;;;5002102;28;20586;-64
2022/09/03 12:59:44;;;;;;;1.90;1.80;;;;;;;;;;4999196;28;20731;-65
2022/09/03 13:02:13;;;;;;;2.03;1.92;;;;;;;;;;4985112;28;20221;-64
2022/09/03 13:04:39;;;;;;;1.90;1.80;;;;;;;;;;4982570;28;20245;-65
2022/09/03 13:07:25;;;;;;;2.10;2.00;;;;;;;;;;4990922;28;20209;-70
2022/09/03 13:09:51;;;;;;;1.90;1.80;;;;;;;;;;4993812;28;20235;-65
2022/09/03 13:12:21;;;;;;;2.00;1.90;;;;;;;;;;4980317;28;20229;-65
2022/09/03 13:14:47;;;;;;;2.10;2.00;;;;;;;;;;4988919;28;20269;-65
2022/09/03 13:17:20;;;;;;;1.95;1.85;;;;;;;;;;4974382;28;20231;-65
2022/09/03 13:19:46;;;;;;;1.77;1.70;;;;;;;;;;4995298;28;20709;-65
2022/09/03 13:22:30;;;;;;;1.60;1.60;;;;;;;;;;5004905;28;20230;-65
2022/09/03 13:25:13;;;;;;;1.50;1.50;;;;;;;;;;5003423;28;20304;-65
2022/09/03 13:27:45;;;;;;;1.90;1.80;;;;;;;;;;5001481;28;20218;-65
2022/09/03 13:30:13;;;;;;;1.90;1.80;;;;;;;;;;4980570;28;20268;-64
2022/09/03 13:32:57;;;;;;;1.70;1.70;;;;;;;;;;4981699;28;20323;-65
2022/09/03 13:35:31;;;;;;;1.80;1.70;;;;;;;;;;5002462;28;20855;-65
2022/09/03 13:38:15;;;;;;;1.60;1.60;;;;;;;;;;4995283;28;20603;-65
2022/09/03 13:41:04;;;;;;;1.88;1.77;;;;;;;;;;4980066;28;20229;-64
2022/09/03 13:43:41;;;;;;;1.60;1.60;;;;;;;;;;4982605;28;21043;-65
2022/09/03 13:46:17;;;;;;;1.60;1.60;;;;;;;;;;5001966;28;20229;-65
2022/09/03 13:51:29;;;;;;;1.90;1.80;;;;;;;;;;5004718;28;20245;-64
2022/09/03 13:53:55;;;;;;;1.60;1.60;;;;;;;;;;4983484;28;20747;-65
2022/09/03 13:56:40;;;;;;;1.70;1.70;;;;;;;;;;4984743;28;20213;-65
2022/09/03 13:59:08;;;;;;;1.80;1.70;;;;;;;;;;4994282;28;20235;-65
2022/09/03 14:01:57;;;;;;;1.60;1.60;;;;;;;;;;4979588;28;20225;-65
2022/09/03 14:04:27;;;;;;;1.60;1.60;;;;;;;;;;4988791;28;20316;-64
2022/09/03 14:07:01;;;;;;;1.60;1.60;;;;;;;;;;5000517;28;20228;-64
2022/09/03 14:09:32;;;;;;;1.50;1.50;;;;;;;;;;4994328;28;20225;-65
2022/09/03 14:12:14;;;;;;;1.40;1.40;;;;;;;;;;4992789;28;20224;-59
2022/09/03 14:14:45;;;;;;;1.50;1.50;;;;;;;;;;4964811;28;20257;-63
2022/09/03 14:17:15;;;;;;;1.50;1.50;;;;;;;;;;4969783;28;20500;-63
2022/09/03 14:20:20;;;;;;;1.50;1.50;;;;;;;;;;4995293;28;20282;-63
2022/09/03 14:22:53;;;;;;;1.50;1.50;;;;;;;;;;4956245;28;20261;-63
2022/09/03 14:25:23;;;;;;;1.60;1.60;;;;;;;;;;4965504;28;20234;-63
2022/09/03 14:27:49;;;;;;;1.50;1.50;;;;;;;;;;4976923;28;20237;-63
2022/09/03 14:30:15;;;;;;;1.52;1.52;;;;;;;;;;4987542;28;20228;-63
2022/09/03 14:32:50;;;;;;;1.60;1.60;;;;;;;;;;4992310;28;20741;-63
2022/09/03 14:35:25;;;;;;;1.55;1.55;;;;;;;;;;5001209;28;20227;-62
2022/09/03 14:37:54;;;;;;;1.50;1.50;;;;;;;;;;4990997;28;20232;-62
2022/09/03 14:40:30;;;;;;;1.60;1.60;;;;;;;;;;4990934;28;20227;-63
2022/09/03 14:42:56;;;;;;;1.73;1.67;;;;;;;;;;4997899;28;20221;-62
2022/09/03 14:45:42;;;;;;;1.63;1.63;;;;;;;;;;4981441;28;20245;-62
2022/09/03 14:48:20;;;;;;;1.85;1.75;;;;;;;;;;4986769;28;20226;-62
2022/09/03 14:51:05;;;;;;;1.80;1.70;;;;;;;;;;4999835;28;20314;-63
2022/09/03 14:53:34;;;;;;;1.70;1.70;;;;;;;;;;4995313;28;20229;-63
2022/09/03 14:56:00;;;;;;;1.85;1.75;;;;;;;;;;4979903;28;20734;-63
2022/09/03 14:58:38;;;;;;;1.70;1.70;;;;;;;;;;4990045;28;20631;-63
2022/09/03 15:01:12;;;;;;;1.90;1.80;;;;;;;;;;4999969;28;20232;-63
2022/09/03 15:03:44;;;;;;;1.73;1.70;;;;;;;;;;4977445;28;20229;-63
2022/09/03 15:06:19;;;;;;;1.77;1.70;;;;;;;;;;5008408;28;20277;-63